createdAt,value
2023-04-02T00:00:37.544Z,7.10
2023-04-02T00:03:09.954Z,7.20
2023-04-02T00:05:51.014Z,7.20
2023-04-02T00:08:27.390Z,7.10
2023-04-02T00:10:58.122Z,7.10
2023-04-02T00:13:36.545Z,7.10
2023-04-02T00:16:07.003Z,7.00
2023-04-02T00:18:39.070Z,7.00
2023-04-02T00:21:15.101Z,7.00
2023-04-02T00:23:44.258Z,7.00
2023-04-02T00:26:43.658Z,7.00
2023-04-02T00:29:13.598Z,6.90
2023-04-02T00:31:52.599Z,6.90
2023-04-02T00:34:22.389Z,6.90
2023-04-02T00:36:51.200Z,7.00
2023-04-02T00:39:28.595Z,6.90
2023-04-02T00:42:07.122Z,6.90
2023-04-02T00:44:42.907Z,6.90
2023-04-02T00:47:19.005Z,6.80
2023-04-02T00:49:46.251Z,6.70
2023-04-02T00:52:18.684Z,6.70
2023-04-02T00:54:50.408Z,6.60
2023-04-02T00:57:25.852Z,6.60
2023-04-02T00:59:59.706Z,6.70
2023-04-02T01:02:32.848Z,6.60
2023-04-02T01:05:05.826Z,6.60
2023-04-02T01:10:41.577Z,6.50
2023-04-02T01:13:30.493Z,6.50
2023-04-02T01:16:08.333Z,6.50
2023-04-02T01:18:46.499Z,6.50
2023-04-02T01:21:34.983Z,6.50
2023-04-02T01:24:05.642Z,6.50
2023-04-02T01:27:03.441Z,6.50
2023-04-02T01:29:40.422Z,6.50
2023-04-02T01:32:12.142Z,6.50
2023-04-02T01:34:39.371Z,6.50
2023-04-02T01:37:50.200Z,6.50
2023-04-02T01:40:36.292Z,6.40
2023-04-02T01:43:36.141Z,6.50
2023-04-02T01:46:25.050Z,6.50
2023-04-02T01:48:54.138Z,6.60
2023-04-02T01:51:44.474Z,6.50
2023-04-02T01:54:12.851Z,6.40
2023-04-02T01:56:41.361Z,6.40
2023-04-02T01:59:11.266Z,6.50
2023-04-02T02:01:49.394Z,6.60
2023-04-02T02:04:17.503Z,6.50
2023-04-02T02:06:45.244Z,6.40
2023-04-02T02:09:26.158Z,6.40
2023-04-02T02:11:53.107Z,6.40
2023-04-02T02:14:23.854Z,6.40
2023-04-02T02:16:53.625Z,6.30
2023-04-02T02:19:48.645Z,6.30
2023-04-02T02:22:26.507Z,6.20
2023-04-02T02:24:54.815Z,6.20
2023-04-02T02:27:22.091Z,6.30
2023-04-02T02:30:09.599Z,6.30
2023-04-02T02:32:41.387Z,6.30
2023-04-02T02:35:49.149Z,6.30
2023-04-02T02:38:21.761Z,6.20
2023-04-02T02:40:52.882Z,6.20
2023-04-02T02:43:20.529Z,6.20
2023-04-02T02:45:48.972Z,6.20
2023-04-02T02:48:20.465Z,6.20
2023-04-02T02:50:47.376Z,6.20
2023-04-02T02:53:23.432Z,6.20
2023-04-02T02:55:57.294Z,6.20
2023-04-02T02:58:31.573Z,6.20
2023-04-02T03:00:59.122Z,6.20
2023-04-02T03:03:32.815Z,6.20
2023-04-02T03:06:10.320Z,6.20
2023-04-02T03:08:45.023Z,6.20
2023-04-02T03:11:19.862Z,6.20
2023-04-02T03:13:50.969Z,6.20
2023-04-02T03:16:44.557Z,6.20
2023-04-02T03:19:35.407Z,6.20
2023-04-02T03:22:18.953Z,6.20
2023-04-02T03:25:04.848Z,6.20
2023-04-02T03:27:42.598Z,6.20
2023-04-02T03:30:30.546Z,6.10
2023-04-02T03:33:15.492Z,6.10
2023-04-02T03:35:55.008Z,6.00
2023-04-02T03:38:41.902Z,6.00
2023-04-02T03:41:24.817Z,6.00
2023-04-02T03:43:55.054Z,5.90
2023-04-02T03:46:34.340Z,5.80
2023-04-02T03:49:09.666Z,5.80
2023-04-02T03:52:04.042Z,5.80
2023-04-02T03:54:31.575Z,5.80
2023-04-02T03:56:59.697Z,5.70
2023-04-02T03:59:50.623Z,5.80
2023-04-02T04:02:27.005Z,5.80
2023-04-02T04:04:55.857Z,5.80
2023-04-02T04:07:33.643Z,5.80
2023-04-02T04:10:03.218Z,5.80
2023-04-02T04:12:36.927Z,5.80
2023-04-02T04:15:09.589Z,5.80
2023-04-02T04:18:10.666Z,5.90
2023-04-02T04:21:00.154Z,5.80
2023-04-02T04:23:36.248Z,5.70
2023-04-02T04:26:12.165Z,5.60
2023-04-02T04:29:23.821Z,5.50
2023-04-02T04:31:55.676Z,5.50
2023-04-02T04:34:36.547Z,5.40
2023-04-02T04:37:07.923Z,5.40
2023-04-02T04:39:47.279Z,5.30
2023-04-02T04:42:26.999Z,5.40
2023-04-02T04:44:57.205Z,5.40
2023-04-02T04:47:33.786Z,5.30
2023-04-02T04:50:22.520Z,5.30
2023-04-02T04:52:49.423Z,5.30
2023-04-02T04:55:31.230Z,5.30
2023-04-02T04:58:04.413Z,5.20
2023-04-02T05:01:00.627Z,5.20
2023-04-02T05:03:54.353Z,5.30
2023-04-02T05:06:45.043Z,5.20
2023-04-02T05:09:36.875Z,5.10
2023-04-02T05:12:18.110Z,5.10
2023-04-02T05:15:01.588Z,5.10
2023-04-02T05:17:54.513Z,5.10
2023-04-02T05:20:32.861Z,5.10
2023-04-02T05:23:14.234Z,5.10
2023-04-02T05:25:54.053Z,5.10
2023-04-02T05:28:36.267Z,5.10
2023-04-02T05:31:40.557Z,5.20
2023-04-02T05:34:07.928Z,5.20
2023-04-02T05:36:35.526Z,5.10
2023-04-02T05:39:02.701Z,5.00
2023-04-02T05:41:46.084Z,4.90
2023-04-02T05:44:21.996Z,4.90
2023-04-02T05:46:51.385Z,4.80
2023-04-02T05:49:39.790Z,4.70
2023-04-02T05:52:12.142Z,4.80
2023-04-02T05:54:58.506Z,4.90
2023-04-02T05:57:43.803Z,4.80
2023-04-02T06:00:23.074Z,4.70
2023-04-02T06:03:00.180Z,4.70
2023-04-02T06:05:34.426Z,4.70
2023-04-02T06:08:14.870Z,4.70
2023-04-02T06:11:08.053Z,4.70
2023-04-02T06:13:36.071Z,4.70
2023-04-02T06:16:03.889Z,4.70
2023-04-02T06:18:34.752Z,4.70
2023-04-02T06:21:03.273Z,4.70
2023-04-02T06:23:41.775Z,4.70
2023-04-02T06:26:26.478Z,4.60
2023-04-02T06:29:08.925Z,4.60
2023-04-02T06:31:50.766Z,4.70
2023-04-02T06:34:28.904Z,4.60
2023-04-02T06:37:21.077Z,4.60
2023-04-02T06:39:48.172Z,4.60
2023-04-02T06:42:21.973Z,4.60
2023-04-02T06:44:49.406Z,4.50
2023-04-02T06:47:25.231Z,4.60
2023-04-02T06:50:05.455Z,4.60
2023-04-02T06:52:37.713Z,4.60
2023-04-02T06:55:23.086Z,4.60
2023-04-02T06:57:50.022Z,4.50
2023-04-02T07:00:26.519Z,4.60
2023-04-02T07:02:56.640Z,4.60
2023-04-02T07:05:23.746Z,4.70
2023-04-02T07:10:22.021Z,4.70
2023-04-02T07:12:48.915Z,4.60
2023-04-02T07:15:17.246Z,4.60
2023-04-02T07:17:44.384Z,4.50
2023-04-02T07:20:31.992Z,4.50
2023-04-02T07:22:58.953Z,4.50
2023-04-02T07:25:27.177Z,4.50
2023-04-02T07:27:54.779Z,4.60
2023-04-02T07:30:22.124Z,4.70
2023-04-02T07:32:49.716Z,4.80
2023-04-02T07:35:16.689Z,4.80
2023-04-02T07:37:43.562Z,4.70
2023-04-02T07:40:22.110Z,4.70
2023-04-02T07:42:49.295Z,4.80
2023-04-02T07:45:16.555Z,4.80
2023-04-02T07:47:44.527Z,4.80
2023-04-02T07:50:11.597Z,4.80
2023-04-02T07:52:42.708Z,4.80
2023-04-02T07:55:14.691Z,4.80
2023-04-02T07:57:50.652Z,4.90
2023-04-02T08:00:18.522Z,4.90
2023-04-02T08:02:45.798Z,4.90
2023-04-02T08:05:12.704Z,4.90
2023-04-02T08:07:39.798Z,4.90
2023-04-02T08:10:08.088Z,4.90
2023-04-02T08:12:35.091Z,4.90
2023-04-02T08:15:02.329Z,4.90
2023-04-02T08:17:31.610Z,4.80
2023-04-02T08:20:01.228Z,4.60
2023-04-02T08:22:29.910Z,4.70
2023-04-02T08:24:57.525Z,4.80
2023-04-02T08:27:25.563Z,4.90
2023-04-02T08:29:52.665Z,4.90
2023-04-02T08:32:19.539Z,4.90
2023-04-02T08:34:46.426Z,4.90
2023-04-02T08:37:13.749Z,4.90
2023-04-02T08:39:41.375Z,5.00
2023-04-02T08:42:37.828Z,5.20
2023-04-02T08:47:51.329Z,5.30
2023-04-02T08:50:32.348Z,5.30
2023-04-02T08:53:02.527Z,5.20
2023-04-02T08:55:43.123Z,5.10
2023-04-02T08:58:17.957Z,5.10
2023-04-02T09:00:47.145Z,5.20
2023-04-02T09:03:28.171Z,5.20
2023-04-02T09:05:56.268Z,5.30
2023-04-02T09:08:25.917Z,5.30
2023-04-02T09:11:00.778Z,5.30
2023-04-02T09:13:30.690Z,5.30
2023-04-02T09:16:16.145Z,5.30
2023-04-02T09:18:44.966Z,5.20
2023-04-02T09:21:36.111Z,5.30
2023-04-02T09:24:04.697Z,5.40
2023-04-02T09:26:33.549Z,5.40
2023-04-02T09:29:38.248Z,5.50
2023-04-02T09:32:20.020Z,5.40
2023-04-02T09:34:47.043Z,5.70
2023-04-02T09:37:19.849Z,5.80
2023-04-02T09:39:46.908Z,5.80
2023-04-02T09:42:38.291Z,5.70
2023-04-02T09:45:31.508Z,6.00
2023-04-02T09:47:59.057Z,5.90
2023-04-02T09:50:29.332Z,5.90
2023-04-02T09:52:56.416Z,5.80
2023-04-02T09:55:29.199Z,5.70
2023-04-02T09:58:16.032Z,5.80
2023-04-02T10:00:53.470Z,6.00
2023-04-02T10:03:29.834Z,5.90
2023-04-02T10:06:11.864Z,5.90
2023-04-02T10:08:41.688Z,5.90
2023-04-02T10:11:30.935Z,6.10
2023-04-02T10:14:06.427Z,6.10
2023-04-02T10:16:50.885Z,6.20
2023-04-02T10:19:40.964Z,6.00
2023-04-02T10:22:15.325Z,5.90
2023-04-02T10:24:42.467Z,6.10
2023-04-02T10:27:17.952Z,6.20
2023-04-02T10:29:58.438Z,6.40
2023-04-02T10:32:48.934Z,6.20
2023-04-02T10:35:53.987Z,6.10
2023-04-02T10:38:43.313Z,6.20
2023-04-02T10:41:10.135Z,6.40
2023-04-02T10:43:57.829Z,6.30
2023-04-02T10:47:04.659Z,6.20
2023-04-02T10:49:40.518Z,6.20
2023-04-02T10:52:29.208Z,6.20
2023-04-02T10:55:01.697Z,6.20
2023-04-02T10:57:35.952Z,6.10
2023-04-02T11:00:12.913Z,6.30
2023-04-02T11:03:02.408Z,6.30
2023-04-02T11:05:49.417Z,6.40
2023-04-02T11:08:42.275Z,6.60
2023-04-02T11:11:28.027Z,6.50
2023-04-02T11:14:03.387Z,6.50
2023-04-02T11:16:30.738Z,6.40
2023-04-02T11:19:25.949Z,6.40
2023-04-02T11:22:00.055Z,6.40
2023-04-02T11:24:34.075Z,6.40
2023-04-02T11:27:15.673Z,6.50
2023-04-02T11:30:07.263Z,6.70
2023-04-02T11:32:49.754Z,6.90
2023-04-02T11:35:32.044Z,6.90
2023-04-02T11:38:06.190Z,6.90
2023-04-02T11:40:58.204Z,7.20
2023-04-02T11:43:33.995Z,7.20
2023-04-02T11:46:06.687Z,6.90
2023-04-02T11:48:36.460Z,6.70
2023-04-02T11:51:32.320Z,6.80
2023-04-02T11:53:59.377Z,7.10
2023-04-02T11:56:43.844Z,7.40
2023-04-02T11:59:31.773Z,7.40
2023-04-02T12:02:10.636Z,7.40
2023-04-02T12:04:44.756Z,7.50
2023-04-02T12:10:23.688Z,7.20
2023-04-02T12:12:51.767Z,7.20
2023-04-02T12:15:37.236Z,7.20
2023-04-02T12:18:22.459Z,7.30
2023-04-02T12:20:58.148Z,7.30
2023-04-02T12:23:34.194Z,7.20
2023-04-02T12:26:04.005Z,7.20
2023-04-02T12:28:33.949Z,7.20
2023-04-02T12:31:09.815Z,7.20
2023-04-02T12:33:38.790Z,7.10
2023-04-02T12:36:24.107Z,7.10
2023-04-02T12:38:57.141Z,7.20
2023-04-02T12:41:27.246Z,7.40
2023-04-02T12:43:59.572Z,7.60
2023-04-02T12:46:27.006Z,7.40
2023-04-02T12:49:08.678Z,7.30
2023-04-02T12:51:39.336Z,7.30
2023-04-02T12:54:07.277Z,7.30
2023-04-02T12:56:34.141Z,7.50
2023-04-02T12:59:01.639Z,7.50
2023-04-02T13:01:32.158Z,7.60
2023-04-02T13:04:08.612Z,7.50
2023-04-02T13:06:36.513Z,7.40
2023-04-02T13:09:28.572Z,7.30
2023-04-02T13:11:56.190Z,7.40
2023-04-02T13:14:24.896Z,7.40
2023-04-02T13:16:51.811Z,7.40
2023-04-02T13:19:28.997Z,7.40
2023-04-02T13:21:57.768Z,7.30
2023-04-02T13:24:30.125Z,7.10
2023-04-02T13:26:59.971Z,7.20
2023-04-02T13:29:34.138Z,7.20
2023-04-02T13:32:05.149Z,7.20
2023-04-02T13:34:32.112Z,7.30
2023-04-02T13:36:59.324Z,7.30
2023-04-02T13:39:27.225Z,7.10
2023-04-02T13:42:01.888Z,7.20
2023-04-02T13:44:31.462Z,7.10
2023-04-02T13:47:00.776Z,7.20
2023-04-02T13:49:28.314Z,7.20
2023-04-02T13:52:00.733Z,7.20
2023-04-02T13:54:43.388Z,7.30
2023-04-02T13:57:10.835Z,7.20
2023-04-02T13:59:37.907Z,7.00
2023-04-02T14:02:09.255Z,7.10
2023-04-02T14:04:41.397Z,7.10
2023-04-02T14:07:29.257Z,7.20
2023-04-02T14:10:05.015Z,7.10
2023-04-02T14:12:53.308Z,7.10
2023-04-02T14:15:29.093Z,6.90
2023-04-02T14:18:19.389Z,7.10
2023-04-02T14:21:14.206Z,7.00
2023-04-02T14:24:14.415Z,6.90
2023-04-02T14:27:11.339Z,6.80
2023-04-02T14:29:42.967Z,6.90
2023-04-02T14:32:30.055Z,6.90
2023-04-02T14:35:08.920Z,6.90
2023-04-02T14:37:47.812Z,6.90
2023-04-02T14:40:38.880Z,7.00
2023-04-02T14:43:16.627Z,7.40
2023-04-02T14:45:55.488Z,7.70
2023-04-02T14:48:37.305Z,7.70
2023-04-02T14:51:22.420Z,7.60
2023-04-02T14:54:12.388Z,7.60
2023-04-02T14:56:57.464Z,7.60
2023-04-02T14:59:35.730Z,7.50
2023-04-02T15:02:17.011Z,7.50
2023-04-02T15:04:52.740Z,7.60
2023-04-02T15:07:24.275Z,7.70
2023-04-02T15:10:20.001Z,7.70
2023-04-02T15:12:48.852Z,7.70
2023-04-02T15:15:40.319Z,7.60
2023-04-02T15:18:16.115Z,7.70
2023-04-02T15:21:00.147Z,8.00
2023-04-02T15:24:07.430Z,8.00
2023-04-02T15:26:59.482Z,8.10
2023-04-02T15:29:52.552Z,8.10
2023-04-02T15:32:34.390Z,8.00
2023-04-02T15:35:07.155Z,8.00
2023-04-02T15:37:46.228Z,7.90
2023-04-02T15:40:24.131Z,7.80
2023-04-02T15:43:06.754Z,7.90
2023-04-02T15:46:07.801Z,8.00
2023-04-02T15:48:44.092Z,8.10
2023-04-02T15:51:39.828Z,8.10
2023-04-02T15:54:27.125Z,8.00
2023-04-02T15:57:23.415Z,8.00
2023-04-02T16:00:17.173Z,8.10
2023-04-02T16:02:52.989Z,8.20
2023-04-02T16:05:42.344Z,8.20
2023-04-02T16:08:27.763Z,8.30
2023-04-02T16:10:54.754Z,8.20
2023-04-02T16:13:36.557Z,8.10
2023-04-02T16:16:13.929Z,8.00
2023-04-02T16:18:59.397Z,7.90
2023-04-02T16:21:33.775Z,8.00
2023-04-02T16:24:00.716Z,8.20
2023-04-02T16:27:00.147Z,8.40
2023-04-02T16:29:55.444Z,8.50
2023-04-02T16:32:52.807Z,8.40
2023-04-02T16:35:43.175Z,8.10
2023-04-02T16:38:34.999Z,8.00
2023-04-02T16:41:31.653Z,7.90
2023-04-02T16:44:26.590Z,7.90
2023-04-02T16:47:21.676Z,8.00
2023-04-02T16:50:11.304Z,8.00
2023-04-02T16:52:58.173Z,8.00
2023-04-02T16:55:39.184Z,8.00
2023-04-02T16:58:30.978Z,7.90
2023-04-02T17:01:06.048Z,7.90
2023-04-02T17:03:53.881Z,8.00
2023-04-02T17:07:06.438Z,8.00
2023-04-02T17:09:42.787Z,7.90
2023-04-02T17:12:10.863Z,7.80
2023-04-02T17:14:44.666Z,7.70
2023-04-02T17:17:15.767Z,7.60
2023-04-02T17:19:44.845Z,7.50
2023-04-02T17:22:21.447Z,7.50
2023-04-02T17:24:54.189Z,7.40
2023-04-02T17:27:35.180Z,7.40
2023-04-02T17:30:15.070Z,7.40
2023-04-02T17:32:42.839Z,7.30
2023-04-02T17:35:18.957Z,7.30
2023-04-02T17:37:55.551Z,7.30
2023-04-02T17:40:26.305Z,7.30
2023-04-02T17:43:10.519Z,7.20
2023-04-02T17:46:01.810Z,7.20
2023-04-02T17:48:46.414Z,7.20
2023-04-02T17:51:39.571Z,7.20
2023-04-02T17:54:18.479Z,7.20
2023-04-02T17:56:51.142Z,7.30
2023-04-02T17:59:55.238Z,7.30
2023-04-02T18:02:50.198Z,7.30
2023-04-02T18:05:27.867Z,7.30
2023-04-02T18:07:57.710Z,7.30
2023-04-02T18:10:56.674Z,7.20
2023-04-02T18:13:36.956Z,7.20
2023-04-02T18:16:22.634Z,7.10
2023-04-02T18:18:55.170Z,7.00
2023-04-02T18:21:40.558Z,6.90
2023-04-02T18:24:33.387Z,6.80
2023-04-02T18:27:21.128Z,6.80
2023-04-02T18:30:02.492Z,6.70
2023-04-02T18:32:56.375Z,6.70
2023-04-02T18:35:25.840Z,6.60
2023-04-02T18:38:17.371Z,6.50
2023-04-02T18:41:18.873Z,6.40
2023-04-02T18:44:04.235Z,6.40
2023-04-02T18:46:54.603Z,6.30
2023-04-02T18:49:28.542Z,6.20
2023-04-02T18:52:12.200Z,6.20
2023-04-02T18:54:43.791Z,6.10
2023-04-02T18:57:18.194Z,6.10
2023-04-02T19:00:17.116Z,6.00
2023-04-02T19:03:27.006Z,6.00
2023-04-02T19:06:03.346Z,5.90
2023-04-02T19:08:36.569Z,5.90
2023-04-02T19:11:28.909Z,5.80
2023-04-02T19:14:00.322Z,5.80
2023-04-02T19:17:02.078Z,5.80
2023-04-02T19:19:50.185Z,5.80
2023-04-02T19:22:27.129Z,5.60
2023-04-02T19:25:29.153Z,5.50
2023-04-02T19:28:02.143Z,5.40
2023-04-02T19:30:32.429Z,5.40
2023-04-02T19:33:05.714Z,5.40
2023-04-02T19:35:40.552Z,5.40
2023-04-02T19:38:34.707Z,5.30
2023-04-02T19:41:20.375Z,5.20
2023-04-02T19:43:47.709Z,5.10
2023-04-02T19:46:14.660Z,5.10
2023-04-02T19:48:58.014Z,5.00
2023-04-02T19:51:24.873Z,4.90
2023-04-02T19:53:51.727Z,4.80
2023-04-02T19:56:18.577Z,4.70
2023-04-02T19:58:45.506Z,4.60
2023-04-02T20:01:12.402Z,4.40
2023-04-02T20:03:39.365Z,4.40
2023-04-02T20:06:06.510Z,4.20
2023-04-02T20:08:33.467Z,4.20
2023-04-02T20:11:00.702Z,4.10
2023-04-02T20:13:28.116Z,4.00
2023-04-02T20:15:59.898Z,4.00
2023-04-02T20:18:27.329Z,4.00
2023-04-02T20:20:54.372Z,4.00
2023-04-02T20:23:21.358Z,3.90
2023-04-02T20:25:53.340Z,3.70
2023-04-02T20:28:21.454Z,3.50
2023-04-02T20:30:50.357Z,3.30
2023-04-02T20:33:18.398Z,3.30
2023-04-02T20:35:45.474Z,3.10
2023-04-02T20:38:12.425Z,3.00
2023-04-02T20:40:41.644Z,2.90
2023-04-02T20:43:09.638Z,2.80
2023-04-02T20:45:37.475Z,2.80
2023-04-02T20:48:05.120Z,2.90
2023-04-02T20:50:32.673Z,3.00
2023-04-02T20:53:01.101Z,3.10
2023-04-02T20:55:27.913Z,3.10
2023-04-02T20:57:55.036Z,3.20
2023-04-02T21:00:22.693Z,3.10
2023-04-02T21:02:49.647Z,3.10
2023-04-02T21:05:16.585Z,3.20
2023-04-02T21:07:43.481Z,3.10
2023-04-02T21:10:11.025Z,3.10
2023-04-02T21:12:37.972Z,3.10
2023-04-02T21:15:05.270Z,3.10
2023-04-02T21:17:32.180Z,3.20
2023-04-02T21:19:59.025Z,3.20
2023-04-02T21:22:25.993Z,3.20
2023-04-02T21:24:53.052Z,3.20
2023-04-02T21:27:19.972Z,3.10
2023-04-02T21:29:46.889Z,3.10
2023-04-02T21:32:21.408Z,3.10
2023-04-02T21:34:48.774Z,3.20
2023-04-02T21:37:15.628Z,3.20
2023-04-02T21:39:42.493Z,3.20
2023-04-02T21:42:11.241Z,3.20
2023-04-02T21:44:38.088Z,3.30
2023-04-02T21:47:05.046Z,3.30
2023-04-02T21:49:31.953Z,3.20
2023-04-02T21:51:59.232Z,3.10
2023-04-02T21:54:26.110Z,3.10
2023-04-02T21:56:53.448Z,3.20
2023-04-02T21:59:20.360Z,3.10
2023-04-02T22:01:49.906Z,3.10
2023-04-02T22:04:22.578Z,3.00
2023-04-02T22:06:49.914Z,3.00
2023-04-02T22:09:19.856Z,3.00
2023-04-02T22:11:54.650Z,3.00
2023-04-02T22:14:22.228Z,2.90
2023-04-02T22:16:49.105Z,2.90
2023-04-02T22:19:17.057Z,2.90
2023-04-02T22:21:44.380Z,2.80
2023-04-02T22:24:16.195Z,2.80
2023-04-02T22:26:43.326Z,2.70
2023-04-02T22:29:10.807Z,2.80
2023-04-02T22:31:38.324Z,2.80
2023-04-02T22:34:06.267Z,2.80
2023-04-02T22:36:34.101Z,2.80
2023-04-02T22:39:01.958Z,2.80
2023-04-02T22:41:29.796Z,2.80
2023-04-02T22:43:57.636Z,2.70
2023-04-02T22:46:26.180Z,2.70
2023-04-02T22:48:53.904Z,2.80
2023-04-02T22:51:22.637Z,2.80
2023-04-02T22:53:50.041Z,2.90
2023-04-02T22:56:19.581Z,3.00
2023-04-02T22:58:46.691Z,3.00
2023-04-02T23:01:18.330Z,3.10
2023-04-02T23:03:45.859Z,3.10
2023-04-02T23:06:15.651Z,3.10
2023-04-02T23:08:42.861Z,3.10
2023-04-02T23:11:16.546Z,3.10
2023-04-02T23:13:44.487Z,3.10
2023-04-02T23:16:15.399Z,3.10
2023-04-02T23:18:43.478Z,3.20
2023-04-02T23:21:10.706Z,3.10
2023-04-02T23:23:38.591Z,3.00
2023-04-02T23:26:08.406Z,3.00
2023-04-02T23:28:36.417Z,3.00
2023-04-02T23:31:05.562Z,2.90
2023-04-02T23:33:32.991Z,2.90
2023-04-02T23:36:00.213Z,2.80
2023-04-02T23:38:27.518Z,2.80
2023-04-02T23:40:54.427Z,2.70
2023-04-02T23:43:21.382Z,2.60
2023-04-02T23:45:49.431Z,2.40
2023-04-02T23:48:17.353Z,2.50
2023-04-02T23:50:45.578Z,2.30
2023-04-02T23:53:13.509Z,2.30
2023-04-02T23:55:40.895Z,2.30
2023-04-02T23:58:08.124Z,2.40
